Terminal Aerodrome Forecast
Issued by NWS North Platte, NE

Home | Current Version | Previous Version | Text Only | Print | Product List | Glossary On
Versions: 1 2 3 4 5 6 7 8 9 10 11 12 13 14 15
000
FTUS43 KLBF 251720
TAFLBF
TAF
KLBF 251720Z 2518/2618 15007KT P6SM FEW110
     FM260800 21004KT P6SM FEW050 BKN090
     FM261400 33004KT P6SM SCT090
     FM261700 05005KT P6SM SCT090=

USA.gov is the U.S. government's official web portal to all federal, state and local government web resources and services.